Time;durP1;ratioP1;P1;durP2;ratioP2;P2;SDS_P1;SDS_P2;PMS_P1;PMS_P2;Temp;Humidity;BMP_temperature;BMP_pressure;BME280_temperature;BME280_humidity;BME280_pressure;Samples;Min_cycle;Max_cycle;Signal;HPM_P1;HPM_P2
2023/10/04 00:00:34;;;;;;;8.80;3.53;;;;;;;17.76;100.00;97310.91;5094011;28;20147;-80
2023/10/04 00:03:00;;;;;;;8.93;3.40;;;;;;;17.85;100.00;97310.72;5110291;28;20015;-80
2023/10/04 00:05:26;;;;;;;4.97;2.93;;;;;;;17.89;100.00;97316.50;5093219;28;20020;-80
2023/10/04 00:07:53;;;;;;;8.40;3.43;;;;;;;18.20;100.00;97315.56;5092676;28;20026;-80
2023/10/04 00:10:26;;;;;;;9.03;3.83;;;;;;;18.43;100.00;97311.00;5092958;28;20028;-80
2023/10/04 00:12:53;;;;;;;7.55;3.75;;;;;;;18.68;100.00;97310.72;5086565;28;20615;-80
2023/10/04 00:15:20;;;;;;;8.43;3.43;;;;;;;18.51;100.00;97307.41;5090915;28;20032;-80
2023/10/04 00:17:46;;;;;;;5.33;2.77;;;;;;;18.43;100.00;97311.00;5081441;28;20115;-80
2023/10/04 00:20:16;;;;;;;6.13;3.03;;;;;;;18.31;100.00;97312.47;5088824;28;20058;-80
2023/10/04 00:22:43;;;;;;;8.40;3.00;;;;;;;18.14;100.00;97315.28;5103937;28;20023;-80
2023/10/04 00:25:16;;;;;;;6.90;3.20;;;;;;;18.11;100.00;97315.66;5087778;28;20423;-80
2023/10/04 00:27:42;;;;;;;;;;;;;;;18.09;100.00;97320.31;5092822;28;20046;-80
2023/10/04 00:30:16;;;;;;;5.00;2.47;;;;;;;18.17;100.00;97313.25;5084673;28;19915;-79
2023/10/04 00:32:44;;;;;;;6.77;2.37;;;;;;;18.13;100.00;97310.94;5083998;28;20032;-79
2023/10/04 00:35:17;;;;;;;8.70;2.90;;;;;;;17.83;100.00;97317.22;5093096;28;20019;-80
2023/10/04 00:37:45;;;;;;;7.00;2.50;;;;;;;17.63;100.00;97320.31;5108825;28;20019;-80
2023/10/04 00:40:18;;;;;;;5.87;2.67;;;;;;;17.48;100.00;97327.41;5090626;28;20056;-79
2023/10/04 00:42:49;;;;;;;5.80;2.92;;;;;;;17.49;100.00;97330.88;5095812;28;20385;-80
2023/10/04 00:45:16;;;;;;;6.60;2.90;;;;;;;17.68;100.00;97323.28;5105619;28;20049;-80
2023/10/04 00:47:51;;;;;;;7.77;2.70;;;;;;;17.89;100.00;97314.66;5092577;28;20144;-80
2023/10/04 00:50:22;;;;;;;6.37;2.60;;;;;;;17.72;100.00;97312.28;5109870;28;20011;-80
2023/10/04 00:52:59;;;;;;;7.00;3.00;;;;;;;17.94;100.00;97316.81;5109111;28;20047;-79
2023/10/04 00:55:42;;;;;;;7.13;2.70;;;;;;;17.70;100.00;97315.09;5088233;28;20019;-79
2023/10/04 00:58:09;;;;;;;5.90;2.77;;;;;;;17.51;100.00;97318.25;5084785;28;20152;-80
2023/10/04 01:00:39;;;;;;;6.97;2.63;;;;;;;17.54;100.00;97315.22;5084322;28;20463;-80
2023/10/04 01:03:11;;;;;;;6.53;2.87;;;;;;;17.28;100.00;97310.25;5108387;28;20070;-80
2023/10/04 01:05:40;;;;;;;4.93;2.03;;;;;;;17.54;100.00;97310.75;5098990;28;20437;-80
2023/10/04 01:08:06;;;;;;;6.27;2.60;;;;;;;17.46;100.00;97315.28;5085464;28;20039;-80
2023/10/04 01:10:36;;;;;;;5.33;2.53;;;;;;;17.16;100.00;97318.59;5117471;27;20033;-79
2023/10/04 01:13:05;;;;;;;7.47;2.60;;;;;;;16.87;100.00;97319.25;5100281;28;20362;-79
2023/10/04 01:15:36;;;;;;;7.60;2.80;;;;;;;17.20;100.00;97319.91;5083938;28;20031;-79
2023/10/04 01:18:07;;;;;;;5.80;2.30;;;;;;;17.48;100.00;97316.75;5084662;28;20052;-80
2023/10/04 01:20:33;;;;;;;5.37;2.33;;;;;;;17.43;100.00;97311.13;5090475;28;20027;-80
2023/10/04 01:23:01;;;;;;;7.00;2.40;;;;;;;17.31;100.00;97309.91;5083166;28;20012;-79
2023/10/04 01:25:35;;;;;;;6.30;2.33;;;;;;;17.36;100.00;97310.19;5091002;28;20030;-79
2023/10/04 01:28:06;;;;;;;6.97;2.60;;;;;;;17.34;100.00;97307.72;5088975;28;20062;-80
2023/10/04 01:30:32;;;;;;;7.10;2.67;;;;;;;17.53;100.00;97298.44;5092007;28;20020;-80
2023/10/04 01:33:00;;;;;;;7.17;2.53;;;;;;;17.72;100.00;97291.81;5088753;28;20054;-80
2023/10/04 01:35:27;;;;;;;5.10;2.33;;;;;;;17.70;100.00;97298.31;5090755;28;20114;-79
2023/10/04 01:37:53;;;;;;;6.90;2.57;;;;;;;17.53;100.00;97303.75;5090255;28;20027;-80
2023/10/04 01:40:22;;;;;;;6.87;2.90;;;;;;;17.49;100.00;97301.63;5084309;28;20523;-80
2023/10/04 01:42:48;;;;;;;6.87;2.63;;;;;;;17.51;100.00;97304.94;5090719;28;20047;-79
2023/10/04 01:45:15;;;;;;;6.00;2.50;;;;;;;17.68;100.00;97307.31;5106933;28;20054;-79
2023/10/04 01:47:41;;;;;;;5.10;2.30;;;;;;;17.63;100.00;97307.00;5092101;28;20034;-80
2023/10/04 01:50:09;;;;;;;4.57;2.27;;;;;;;17.47;100.00;97314.25;5090948;28;20069;-80
2023/10/04 01:52:36;;;;;;;5.50;2.83;;;;;;;17.24;100.00;97312.44;5087690;28;20076;-80
2023/10/04 01:55:05;;;;;;;3.77;2.10;;;;;;;17.10;100.00;97314.00;5100858;28;20107;-80
2023/10/04 01:57:34;;;;;;;5.93;2.10;;;;;;;17.11;100.00;97318.31;5079346;28;20019;-79
2023/10/04 02:00:01;;;;;;;6.77;2.57;;;;;;;16.85;100.00;97325.72;5092157;28;20065;-79
2023/10/04 02:02:27;;;;;;;5.37;2.50;;;;;;;16.93;100.00;97323.88;5092499;28;21700;-80
2023/10/04 02:04:53;;;;;;;9.27;3.07;;;;;;;16.75;100.00;97325.09;5110347;28;20024;-79
2023/10/04 02:07:23;;;;;;;6.30;2.77;;;;;;;17.04;100.00;97319.19;5102211;28;20024;-79
2023/10/04 02:09:52;;;;;;;9.40;2.97;;;;;;;17.15;100.00;97319.59;5100110;27;20072;-79
2023/10/04 02:12:18;;;;;;;5.50;2.23;;;;;;;16.92;100.00;97316.06;5083685;28;20387;-80
2023/10/04 02:14:47;;;;;;;4.63;2.63;;;;;;;17.10;100.00;97310.47;5090653;28;20024;-79
2023/10/04 02:17:18;;;;;;;5.13;2.67;;;;;;;17.27;100.00;97309.41;5096780;28;20027;-80
2023/10/04 02:19:44;;;;;;;7.50;2.40;;;;;;;17.20;100.00;97308.44;5096036;28;20031;-79
2023/10/04 02:22:13;;;;;;;7.07;3.10;;;;;;;17.42;100.00;97306.81;5113162;28;20019;-80
2023/10/04 02:24:38;;;;;;;6.13;2.60;;;;;;;17.40;100.00;97316.81;5105583;28;20059;-79
2023/10/04 02:27:08;;;;;;;6.57;2.87;;;;;;;17.24;100.00;97314.25;5097437;28;20039;-79
2023/10/04 02:29:38;;;;;;;6.53;3.40;;;;;;;17.34;100.00;97310.38;5091204;28;20020;-79
2023/10/04 02:32:08;;;;;;;8.00;3.00;;;;;;;17.12;100.00;97311.97;5098236;28;20019;-80
2023/10/04 02:34:35;;;;;;;6.47;2.70;;;;;;;17.12;100.00;97309.31;5127396;27;20501;-80
2023/10/04 02:37:06;;;;;;;8.77;2.73;;;;;;;17.12;100.00;97303.19;5096941;28;20071;-80
2023/10/04 02:39:37;;;;;;;6.83;3.50;;;;;;;17.12;100.00;97306.66;5096388;28;20024;-79
2023/10/04 02:42:09;;;;;;;9.20;3.30;;;;;;;17.13;100.00;97312.78;5113837;28;20026;-80
2023/10/04 02:44:41;;;;;;;7.23;2.70;;;;;;;17.08;100.00;97315.16;5095043;28;20020;-79
2023/10/04 02:47:06;;;;;;;9.30;3.40;;;;;;;17.07;100.00;97314.34;5091996;28;20027;-79
2023/10/04 02:49:38;;;;;;;5.13;2.60;;;;;;;16.91;100.00;97315.22;5087442;28;20390;-79
2023/10/04 02:52:11;;;;;;;;;;;;;;;16.94;100.00;97319.38;5094308;28;20082;-79
2023/10/04 02:54:38;;;;;;;6.20;2.80;;;;;;;17.11;100.00;97320.13;5108676;27;19915;-79
2023/10/04 02:57:08;;;;;;;5.97;2.60;;;;;;;16.96;100.00;97317.38;5097850;28;20393;-79
2023/10/04 02:59:35;;;;;;;4.83;2.40;;;;;;;17.14;100.00;97314.47;5091134;28;20024;-79
2023/10/04 03:02:03;;;;;;;6.07;2.80;;;;;;;17.08;100.00;97316.00;5112354;28;20024;-79
2023/10/04 03:04:28;;;;;;;5.27;2.77;;;;;;;17.03;100.00;97318.31;5105162;28;20027;-80
2023/10/04 03:07:14;;;;;;;6.47;2.90;;;;;;;17.02;100.00;97318.50;5094499;28;20047;-79
2023/10/04 03:09:41;;;;;;;9.03;2.70;;;;;;;17.01;100.00;97314.22;5092049;28;20034;-79
2023/10/04 03:12:07;;;;;;;7.53;2.37;;;;;;;17.00;100.00;97315.19;5106198;28;20102;-79
2023/10/04 03:14:33;;;;;;;7.37;3.50;;;;;;;16.99;100.00;97317.03;5089820;28;20023;-79
2023/10/04 03:16:59;;;;;;;7.53;3.10;;;;;;;16.93;100.00;97323.88;5093587;28;20027;-80
2023/10/04 03:19:25;;;;;;;5.60;2.77;;;;;;;17.10;100.00;97321.97;5092695;28;20024;-79
2023/10/04 03:21:51;;;;;;;7.10;2.23;;;;;;;16.95;100.00;97321.84;5091839;28;20412;-80
2023/10/04 03:24:18;;;;;;;5.73;2.77;;;;;;;16.76;100.00;97329.41;5092770;28;20236;-79
2023/10/04 03:26:44;;;;;;;7.53;3.00;;;;;;;16.81;100.00;97335.03;5091967;28;20028;-79
2023/10/04 03:29:11;;;;;;;7.77;2.97;;;;;;;16.90;100.00;97339.31;5093166;28;20545;-80
2023/10/04 03:31:39;;;;;;;7.10;2.47;;;;;;;16.85;100.00;97336.34;5101117;28;20035;-80
2023/10/04 03:34:07;;;;;;;6.90;2.67;;;;;;;16.84;100.00;97337.34;5088555;28;20058;-79
2023/10/04 03:36:54;;;;;;;6.40;2.80;;;;;;;16.99;100.00;97337.44;5110325;28;20031;-79
2023/10/04 03:39:28;;;;;;;5.63;2.40;;;;;;;17.13;100.00;97340.19;5107974;28;20023;-79
2023/10/04 03:41:56;;;;;;;9.15;2.83;;;;;;;17.12;100.00;97343.03;5092489;28;20019;-79
2023/10/04 03:44:22;;;;;;;6.53;2.90;;;;;;;17.16;100.00;97341.69;5086291;28;20615;-79
2023/10/04 03:46:48;;;;;;;5.03;2.33;;;;;;;17.18;100.00;97334.38;5088868;28;20036;-79
2023/10/04 03:49:14;;;;;;;5.20;2.73;;;;;;;17.08;100.00;97331.94;5090522;28;20114;-80
2023/10/04 03:51:41;;;;;;;6.80;2.90;;;;;;;17.16;100.00;97334.53;5080703;28;20316;-79
2023/10/04 03:54:08;;;;;;;5.80;2.63;;;;;;;16.84;100.00;97334.69;5109395;28;20072;-79
2023/10/04 03:56:36;;;;;;;6.87;3.20;;;;;;;16.77;100.00;97325.72;5098448;28;20020;-79
2023/10/04 03:59:03;;;;;;;7.17;2.90;;;;;;;16.92;100.00;97326.69;5091805;28;20035;-79
2023/10/04 04:01:29;;;;;;;7.10;3.07;;;;;;;16.71;100.00;97320.09;5091238;28;20093;-79
2023/10/04 04:03:55;;;;;;;6.97;2.77;;;;;;;16.77;100.00;97326.59;5087143;28;20035;-80
2023/10/04 04:06:21;;;;;;;8.63;2.90;;;;;;;16.79;100.00;97327.22;5090481;28;20027;-79
2023/10/04 04:08:49;;;;;;;9.47;2.83;;;;;;;16.80;100.00;97330.72;5080266;28;20024;-79
2023/10/04 04:11:15;;;;;;;7.33;3.03;;;;;;;16.84;100.00;97340.00;5106832;28;20047;-79
2023/10/04 04:13:41;;;;;;;7.47;3.10;;;;;;;17.07;100.00;97334.75;5091516;28;20082;-79
2023/10/04 04:16:10;;;;;;;5.67;2.53;;;;;;;17.11;100.00;97326.28;5092623;28;20027;-79
2023/10/04 04:18:37;;;;;;;5.93;2.43;;;;;;;16.95;100.00;97331.66;5086558;28;20027;-79
2023/10/04 04:21:05;;;;;;;7.10;3.10;;;;;;;16.84;100.00;97329.38;5089981;28;20078;-79
2023/10/04 04:23:31;;;;;;;7.13;2.33;;;;;;;17.04;100.00;97325.31;5091849;28;20023;-79
2023/10/04 04:25:59;;;;;;;5.37;2.57;;;;;;;17.07;100.00;97322.31;5083275;28;20386;-79
2023/10/04 04:28:25;;;;;;;7.43;2.57;;;;;;;16.94;100.00;97316.72;5082107;28;20034;-79
2023/10/04 04:30:53;;;;;;;6.80;3.07;;;;;;;16.79;100.00;97316.59;5089980;28;20052;-79
2023/10/04 04:33:23;;;;;;;5.97;2.63;;;;;;;16.86;100.00;97319.41;5099694;28;20106;-79
2023/10/04 04:35:52;;;;;;;5.73;2.50;;;;;;;16.80;100.00;97322.75;5081555;28;20024;-79
2023/10/04 04:40:56;;;;;;;8.23;2.50;;;;;;;16.73;100.00;97318.09;5105232;28;20486;-79
2023/10/04 04:43:35;;;;;;;6.73;3.10;;;;;;;16.78;100.00;97332.72;5085934;28;20023;-79
2023/10/04 04:46:06;;;;;;;6.43;2.70;;;;;;;16.63;100.00;97332.56;5085471;28;20011;-79
2023/10/04 04:48:37;;;;;;;7.57;3.30;;;;;;;16.62;100.00;97338.88;5077445;28;20027;-79
2023/10/04 04:51:14;;;;;;;7.67;3.23;;;;;;;16.47;100.00;97334.28;5096159;27;20100;-79
2023/10/04 04:53:46;;;;;;;7.07;3.20;;;;;;;16.67;100.00;97334.72;5096241;28;20031;-79
2023/10/04 04:56:15;;;;;;;8.20;3.43;;;;;;;16.44;100.00;97339.09;5091964;28;20020;-79
2023/10/04 04:58:48;;;;;;;6.30;2.90;;;;;;;16.50;100.00;97344.56;5086135;28;21078;-79
2023/10/04 05:01:16;;;;;;;8.57;3.60;;;;;;;16.48;100.00;97338.56;5081340;28;20030;-79
2023/10/04 05:03:45;;;;;;;7.57;3.23;;;;;;;16.39;100.00;97336.09;5089872;28;20028;-78
2023/10/04 05:06:22;;;;;;;6.40;3.13;;;;;;;16.49;100.00;97342.88;5083854;28;20412;-79
2023/10/04 05:08:50;;;;;;;7.03;3.27;;;;;;;16.41;100.00;97344.72;5100595;28;20031;-79
2023/10/04 05:11:18;;;;;;;5.40;2.97;;;;;;;16.29;100.00;97348.72;5089845;28;20052;-79
2023/10/04 05:13:54;;;;;;;7.63;2.97;;;;;;;16.40;100.00;97343.09;5096553;28;20028;-79
2023/10/04 05:16:36;;;;;;;7.70;3.40;;;;;;;16.40;100.00;97349.22;5098025;28;20095;-79
2023/10/04 05:19:03;;;;;;;7.97;3.73;;;;;;;16.36;100.00;97345.22;5098980;28;20031;-79
2023/10/04 05:21:30;;;;;;;9.83;3.77;;;;;;;16.18;100.00;97345.41;5089665;28;20027;-79
2023/10/04 05:24:10;;;;;;;9.23;3.93;;;;;;;16.22;100.00;97348.56;5089199;28;20023;-79
2023/10/04 05:26:37;;;;;;;7.80;3.90;;;;;;;16.32;100.00;97346.56;5100324;28;20036;-79
2023/10/04 05:29:03;;;;;;;7.77;3.53;;;;;;;16.34;100.00;97344.56;5087074;28;20430;-80
2023/10/04 05:31:28;;;;;;;6.87;3.27;;;;;;;16.33;100.00;97348.25;5087784;28;20064;-79
2023/10/04 05:33:54;;;;;;;7.93;3.70;;;;;;;16.19;100.00;97347.06;5090435;28;20034;-79
2023/10/04 05:36:20;;;;;;;7.80;3.53;;;;;;;16.22;100.00;97337.94;5104528;28;20022;-79
2023/10/04 05:38:47;;;;;;;9.93;3.00;;;;;;;16.22;100.00;97341.44;5092481;28;20045;-79
2023/10/04 05:41:14;;;;;;;8.40;3.63;;;;;;;16.23;100.00;97335.16;5088469;28;20024;-79
2023/10/04 05:43:39;;;;;;;7.27;3.50;;;;;;;16.44;100.00;97336.44;5079816;28;20534;-79
2023/10/04 05:46:06;;;;;;;10.13;3.57;;;;;;;16.84;100.00;97345.31;5082583;28;20047;-79
2023/10/04 05:48:34;;;;;;;6.47;3.40;;;;;;;16.92;100.00;97347.94;5097171;28;20050;-80
2023/10/04 05:51:00;;;;;;;9.50;3.33;;;;;;;17.57;100.00;97342.31;5096414;28;20031;-83
2023/10/04 05:53:27;;;;;;;6.70;3.50;;;;;;;17.77;100.00;97349.84;5109195;28;20072;-81
2023/10/04 05:55:52;;;;;;;8.53;3.80;;;;;;;17.84;100.00;97348.13;5085682;28;20024;-79
2023/10/04 05:58:20;;;;;;;8.23;3.13;;;;;;;17.81;100.00;97337.84;5100597;28;20027;-79
2023/10/04 06:00:51;;;;;;;7.40;3.17;;;;;;;18.02;100.00;97338.00;5085511;28;20035;-79
2023/10/04 06:03:17;;;;;;;7.90;3.70;;;;;;;18.13;100.00;97340.25;5101058;28;20442;-79
2023/10/04 06:05:43;;;;;;;6.23;3.50;;;;;;;18.25;100.00;97345.97;5076397;28;20030;-79
2023/10/04 06:08:11;;;;;;;6.47;3.37;;;;;;;18.48;100.00;97332.59;5094925;28;20134;-79
2023/10/04 06:10:38;;;;;;;8.67;5.63;;;;;;;18.87;100.00;97330.72;5075874;28;20028;-81
2023/10/04 06:13:07;;;;;;;6.93;4.17;;;;;;;18.59;100.00;97331.31;5102289;28;20024;-81
2023/10/04 06:15:35;;;;;;;6.73;2.77;;;;;;;18.84;100.00;97337.22;5106404;28;20163;-81
2023/10/04 06:18:01;;;;;;;7.33;2.63;;;;;;;18.73;100.00;97348.34;5101268;28;20152;-81
2023/10/04 06:20:33;;;;;;;6.23;2.60;;;;;;;19.15;100.00;97355.72;5089933;28;20091;-85
2023/10/04 06:23:00;;;;;;;12.00;5.33;;;;;;;18.71;100.00;97351.19;5078290;28;20124;-83
2023/10/04 06:25:29;;;;;;;5.60;2.73;;;;;;;19.29;100.00;97354.84;5083465;28;20500;-83
2023/10/04 06:27:59;;;;;;;5.43;2.73;;;;;;;18.82;100.00;97364.06;5095696;28;20027;-83
2023/10/04 06:30:27;;;;;;;5.50;2.40;;;;;;;18.25;100.00;97366.44;5096517;28;20148;-84
2023/10/04 06:32:55;;;;;;;5.83;2.80;;;;;;;18.44;100.00;97359.78;5084408;28;20478;-83
2023/10/04 06:35:25;;;;;;;5.70;2.63;;;;;;;18.59;100.00;97363.28;5099453;28;20036;-83
2023/10/04 06:37:56;;;;;;;8.20;2.97;;;;;;;19.31;100.00;97363.50;5099824;28;20066;-83
2023/10/04 06:40:23;;;;;;;7.03;3.20;;;;;;;19.65;100.00;97370.06;5106084;28;20022;-84
2023/10/04 06:42:50;;;;;;;6.80;2.70;;;;;;;19.89;100.00;97360.88;5087508;28;20053;-83
2023/10/04 06:45:19;;;;;;;7.80;2.50;;;;;;;19.77;100.00;97367.72;5089493;28;20026;-83
2023/10/04 06:47:47;;;;;;;5.93;2.67;;;;;;;20.05;100.00;97370.44;5107084;28;20015;-83
2023/10/04 06:50:15;;;;;;;7.83;2.60;;;;;;;20.36;100.00;97367.47;5077451;28;20569;-84
2023/10/04 06:52:42;;;;;;;7.07;2.90;;;;;;;20.50;100.00;97363.03;5076920;28;20381;-83
2023/10/04 06:55:11;;;;;;;9.80;2.80;;;;;;;20.71;100.00;97373.69;5074060;28;20019;-84
2023/10/04 06:57:41;;;;;;;7.70;2.87;;;;;;;21.29;100.00;97373.41;5084719;28;20027;-82
2023/10/04 07:00:14;;;;;;;6.20;3.00;;;;;;;20.96;100.00;97373.25;5110324;28;20055;-81
2023/10/04 07:02:43;;;;;;;7.73;3.13;;;;;;;21.56;100.00;97373.53;5088734;28;20027;-81
2023/10/04 07:05:09;;;;;;;6.30;2.83;;;;;;;21.27;100.00;97371.97;5097986;28;20401;-84
2023/10/04 07:07:36;;;;;;;6.97;3.03;;;;;;;21.50;100.00;97360.97;5089730;28;20032;-84
2023/10/04 07:10:02;;;;;;;6.43;2.50;;;;;;;21.32;100.00;97375.66;5090858;28;20020;-83
2023/10/04 07:12:28;;;;;;;5.07;2.40;;;;;;;21.75;100.00;97383.47;5083227;28;20456;-84
2023/10/04 07:14:53;;;;;;;6.38;2.35;;;;;;;21.36;100.00;97371.63;5113208;27;20493;-84
2023/10/04 07:17:19;;;;;;;5.95;3.10;;;;;;;22.30;100.00;97376.19;5087713;28;20016;-83
2023/10/04 07:19:52;;;;;;;6.13;2.60;;;;;;;21.86;100.00;97385.59;5100040;28;20034;-84
2023/10/04 07:22:21;;;;;;;6.25;2.35;;;;;;;22.54;100.00;97372.06;5100310;28;20039;-84
2023/10/04 07:24:47;;;;;;;7.88;3.22;;;;;;;22.84;100.00;97385.03;5084117;28;20015;-84
2023/10/04 07:27:12;;;;;;;7.93;2.72;;;;;;;22.19;100.00;97381.31;5078894;28;20077;-84
2023/10/04 07:29:38;;;;;;;6.68;2.75;;;;;;;22.10;100.00;97402.94;5110224;28;20397;-84
2023/10/04 07:32:05;;;;;;;8.07;2.95;;;;;;;23.17;93.13;97392.19;5090376;28;20031;-84
2023/10/04 07:34:30;;;;;;;7.07;2.67;;;;;;;23.52;93.88;97395.38;5085025;28;20126;-85
2023/10/04 07:36:56;;;;;;;8.65;3.00;;;;;;;24.50;83.49;97402.31;5103566;28;20410;-85
2023/10/04 07:39:22;;;;;;;5.82;2.55;;;;;;;23.81;82.44;97403.94;5082674;28;20417;-84
2023/10/04 07:41:47;;;;;;;14.93;3.00;;;;;;;23.84;91.15;97403.53;5104500;28;20027;-85
2023/10/04 07:44:13;;;;;;;6.80;2.55;;;;;;;23.53;92.42;97408.59;5098668;28;20020;-85
2023/10/04 07:46:39;;;;;;;6.60;2.78;;;;;;;24.42;85.24;97395.34;5087554;28;20021;-85
2023/10/04 07:49:05;;;;;;;6.55;2.47;;;;;;;24.22;80.73;97395.44;5087871;28;20427;-85
2023/10/04 07:51:31;;;;;;;6.10;2.70;;;;;;;23.87;86.51;97400.41;5082315;28;20080;-85
2023/10/04 07:53:57;;;;;;;9.45;3.22;;;;;;;24.42;78.02;97400.72;5091670;28;20024;-85
2023/10/04 07:56:23;;;;;;;6.35;2.85;;;;;;;24.99;73.40;97406.00;5092673;28;20039;-85
2023/10/04 07:58:48;;;;;;;6.22;2.80;;;;;;;24.70;73.41;97403.78;5108245;28;20020;-84
2023/10/04 08:01:14;;;;;;;6.00;2.45;;;;;;;24.94;78.83;97396.72;5095924;28;20016;-84
2023/10/04 08:03:40;;;;;;;5.75;2.80;;;;;;;25.08;72.73;97396.59;5097230;28;20482;-85
2023/10/04 08:06:11;;;;;;;6.93;2.60;;;;;;;24.54;75.93;97395.44;5086476;28;20474;-84
2023/10/04 08:08:41;;;;;;;5.60;2.45;;;;;;;24.52;77.57;97402.91;5100362;28;20502;-85
2023/10/04 08:11:11;;;;;;;6.68;3.35;;;;;;;24.39;74.44;97396.56;5095812;28;20024;-84
2023/10/04 08:13:38;;;;;;;6.32;2.72;;;;;;;25.46;70.54;97393.72;5098626;28;20027;-84
2023/10/04 08:16:04;;;;;;;8.63;3.33;;;;;;;26.83;63.06;97394.84;5098260;28;20042;-84
2023/10/04 08:18:30;;;;;;;8.95;3.20;;;;;;;24.80;70.88;97402.47;5084421;28;20039;-84
2023/10/04 08:20:56;;;;;;;7.32;2.80;;;;;;;25.43;73.80;97402.25;5094934;28;20429;-85
2023/10/04 08:23:22;;;;;;;6.53;2.30;;;;;;;26.94;63.25;97402.97;5086267;28;20040;-85
2023/10/04 08:25:51;;;;;;;5.32;2.30;;;;;;;25.99;64.75;97403.84;5110900;27;20035;-85
2023/10/04 08:28:16;;;;;;;6.22;2.70;;;;;;;26.29;62.91;97416.44;5088060;28;20485;-85
2023/10/04 08:30:42;;;;;;;4.50;2.17;;;;;;;26.18;65.66;97409.16;5080156;28;20034;-85
2023/10/04 08:33:08;;;;;;;5.40;2.47;;;;;;;26.45;63.00;97409.56;5091032;27;20031;-85
2023/10/04 08:35:36;;;;;;;6.65;2.80;;;;;;;26.75;62.81;97404.94;5087911;28;20576;-85
2023/10/04 08:38:04;;;;;;;7.65;2.40;;;;;;;27.21;56.56;97399.81;5110526;27;20023;-84
2023/10/04 08:40:30;;;;;;;5.85;2.42;;;;;;;27.49;55.18;97407.16;5106886;28;20076;-85
2023/10/04 08:42:58;;;;;;;5.53;2.40;;;;;;;27.99;53.16;97400.31;5099647;28;20027;-81
2023/10/04 08:45:29;;;;;;;4.60;2.00;;;;;;;27.44;52.94;97405.16;5087042;28;20042;-83
2023/10/04 08:47:56;;;;;;;5.88;2.63;;;;;;;28.08;53.50;97409.69;5101424;28;20028;-83
2023/10/04 08:51:09;;;;;;;7.50;3.15;;;;;;;27.55;52.64;97411.59;5101585;28;20115;-83
2023/10/04 08:53:37;;;;;;;7.97;2.90;;;;;;;28.53;49.45;97412.38;5082059;28;20501;-83
2023/10/04 08:56:08;;;;;;;6.55;2.22;;;;;;;27.32;52.86;97409.75;5087650;28;20051;-83
2023/10/04 08:58:35;;;;;;;6.80;2.47;;;;;;;28.13;49.32;97397.06;5101577;28;20109;-83
2023/10/04 09:01:04;;;;;;;7.15;2.60;;;;;;;27.85;51.23;97395.19;5090386;28;20166;-83
2023/10/04 09:03:31;;;;;;;5.75;2.40;;;;;;;28.79;49.94;97388.44;5101800;28;20409;-83
2023/10/04 09:05:57;;;;;;;3.63;1.90;;;;;;;27.81;52.39;97394.06;5104111;28;20442;-82
2023/10/04 09:08:25;;;;;;;6.45;2.13;;;;;;;27.92;48.18;97382.34;5080912;28;20134;-83
2023/10/04 09:10:54;;;;;;;5.63;2.50;;;;;;;29.00;48.58;97387.69;5082735;28;20305;-83
2023/10/04 09:13:20;;;;;;;6.95;2.70;;;;;;;29.13;47.96;97381.13;5100533;28;20035;-83
2023/10/04 09:15:46;;;;;;;6.22;2.30;;;;;;;30.10;43.78;97390.41;5079129;28;20032;-83
2023/10/04 09:18:11;;;;;;;5.78;2.40;;;;;;;29.84;41.90;97387.44;5086299;28;20058;-82
2023/10/04 09:20:38;;;;;;;6.70;3.35;;;;;;;28.80;45.85;97385.47;5089691;28;20030;-82
2023/10/04 09:23:22;;;;;;;8.27;2.60;;;;;;;27.28;49.89;97387.00;5086265;28;20031;-83
2023/10/04 09:25:48;;;;;;;5.25;2.00;;;;;;;26.01;53.00;97382.84;5087925;28;20026;-82
2023/10/04 09:28:13;;;;;;;5.07;1.67;;;;;;;24.49;54.54;97385.34;5083926;28;20027;-83
2023/10/04 09:30:39;;;;;;;6.07;1.63;;;;;;;25.78;53.28;97390.81;5117773;28;20039;-82
2023/10/04 09:33:28;;;;;;;5.45;1.75;;;;;;;25.88;51.84;97393.00;5104241;28;20027;-82
2023/10/04 09:35:56;;;;;;;9.75;2.00;;;;;;;24.99;54.03;97393.38;5101231;28;20031;-83
2023/10/04 09:38:25;;;;;;;5.45;1.60;;;;;;;24.88;54.20;97383.31;5087224;28;20030;-82
2023/10/04 09:40:59;;;;;;;5.55;1.60;;;;;;;24.15;55.86;97386.63;5102000;28;20028;-82
2023/10/04 09:43:36;;;;;;;3.47;1.30;;;;;;;24.70;56.73;97371.50;5081500;28;20401;-83
2023/10/04 09:46:07;;;;;;;4.85;1.33;;;;;;;24.12;56.36;97362.84;5087940;28;20050;-82
2023/10/04 09:48:36;;;;;;;5.57;1.70;;;;;;;24.80;58.76;97370.19;5099632;28;20046;-82
2023/10/04 09:51:05;;;;;;;4.43;1.48;;;;;;;25.87;51.33;97376.00;5088764;28;20523;-82
2023/10/04 09:53:38;;;;;;;7.00;2.47;;;;;;;24.29;60.33;97379.28;5090788;28;20090;-81
2023/10/04 09:56:04;;;;;;;5.75;1.42;;;;;;;26.17;52.57;97380.56;5096808;28;20085;-81
2023/10/04 09:58:32;;;;;;;16.33;10.80;;;;;;;24.99;52.89;97384.47;5098503;28;20027;-81
2023/10/04 10:01:11;;;;;;;6.20;1.95;;;;;;;26.44;50.82;97370.19;5079497;28;20039;-82
2023/10/04 10:03:56;;;;;;;5.13;1.20;;;;;;;25.73;48.77;97377.22;5100773;28;20031;-83
2023/10/04 10:06:26;;;;;;;7.95;1.65;;;;;;;26.25;48.91;97378.34;5073069;28;20032;-83
2023/10/04 10:08:57;;;;;;;5.13;1.38;;;;;;;25.05;49.89;97380.88;5097990;28;20028;-85
2023/10/04 10:11:24;;;;;;;6.03;1.75;;;;;;;26.30;46.71;97381.19;5086110;28;20039;-84
2023/10/04 10:13:52;;;;;;;4.82;1.40;;;;;;;27.45;45.14;97368.16;5100722;28;20070;-82
2023/10/04 10:16:21;;;;;;;4.07;1.42;;;;;;;26.28;46.78;97382.44;5098148;28;20119;-83
2023/10/04 10:18:52;;;;;;;5.03;1.45;;;;;;;26.03;46.08;97380.75;5094924;28;20039;-82
2023/10/04 10:21:17;;;;;;;7.05;2.55;;;;;;;25.68;45.31;97377.88;5094807;28;20248;-81
2023/10/04 10:23:57;;;;;;;4.22;1.30;;;;;;;26.91;43.25;97370.22;5079124;28;20032;-81
2023/10/04 10:26:23;;;;;;;6.00;1.52;;;;;;;27.92;41.78;97376.94;5103687;28;20100;-81
2023/10/04 10:28:58;;;;;;;5.30;1.30;;;;;;;27.43;42.05;97367.56;5103246;28;20039;-80
2023/10/04 10:31:26;;;;;;;4.32;1.38;;;;;;;28.06;40.15;97360.44;5102514;28;20032;-80
2023/10/04 10:33:55;;;;;;;5.10;1.35;;;;;;;27.75;41.87;97354.44;5101118;28;20453;-80
2023/10/04 10:36:23;;;;;;;5.95;1.38;;;;;;;28.23;39.34;97358.56;5096206;28;20027;-80
2023/10/04 10:38:54;;;;;;;5.70;1.60;;;;;;;28.47;38.84;97350.31;5089747;28;20027;-80
2023/10/04 10:41:29;;;;;;;3.42;0.93;;;;;;;28.37;39.25;97349.06;5080557;28;20080;-80
2023/10/04 10:44:20;;;;;;;5.47;1.10;;;;;;;28.48;37.96;97343.84;5091160;28;20089;-80
2023/10/04 10:47:16;;;;;;;3.90;1.23;;;;;;;28.32;38.79;97357.09;5104611;28;20019;-80
2023/10/04 10:49:41;;;;;;;7.03;1.40;;;;;;;28.62;37.74;97353.28;5087514;28;20103;-80
2023/10/04 10:52:23;;;;;;;4.00;1.20;;;;;;;27.70;38.55;97352.47;5101357;28;20110;-80
2023/10/04 10:54:53;;;;;;;4.93;1.50;;;;;;;27.85;39.13;97353.84;5103511;28;20027;-80
2023/10/04 10:57:20;;;;;;;5.55;1.20;;;;;;;28.16;38.73;97358.72;5090706;28;20030;-80
2023/10/04 10:59:48;;;;;;;4.88;1.25;;;;;;;28.80;38.48;97360.28;5098764;28;20023;-80
2023/10/04 11:02:13;;;;;;;4.28;1.40;;;;;;;28.40;37.45;97359.44;5089797;28;20469;-80
2023/10/04 11:04:39;;;;;;;2.95;1.00;;;;;;;29.32;36.12;97357.25;5088904;28;20043;-80
2023/10/04 11:07:06;;;;;;;3.45;1.10;;;;;;;28.35;36.85;97344.97;5102585;28;20027;-81
2023/10/04 11:09:37;;;;;;;2.85;1.13;;;;;;;29.26;37.15;97352.84;5099886;28;20035;-80
2023/10/04 11:12:07;;;;;;;4.57;1.52;;;;;;;30.49;34.95;97342.22;5103095;28;20032;-80
2023/10/04 11:14:34;;;;;;;3.55;1.15;;;;;;;30.62;33.91;97340.13;5089340;28;20035;-81
2023/10/04 11:17:06;;;;;;;3.20;1.25;;;;;;;29.37;35.43;97350.00;5086583;28;20019;-80
2023/10/04 11:19:32;;;;;;;4.97;1.13;;;;;;;29.71;35.13;97335.50;5112288;27;20518;-80
2023/10/04 11:21:59;;;;;;;3.20;1.33;;;;;;;30.14;34.26;97334.56;5104696;27;20054;-80
2023/10/04 11:24:26;;;;;;;6.30;2.00;;;;;;;29.70;35.74;97328.44;5086052;28;20035;-80
2023/10/04 11:26:56;;;;;;;8.73;3.38;;;;;;;30.84;34.60;97321.03;5088460;28;20061;-80
2023/10/04 11:29:24;;;;;;;4.72;1.92;;;;;;;29.91;35.76;97327.56;5089709;28;20291;-80
2023/10/04 11:31:50;;;;;;;4.90;1.33;;;;;;;30.66;33.87;97314.94;5090514;28;20028;-80
2023/10/04 11:34:15;;;;;;;3.55;1.55;;;;;;;29.44;35.27;97330.84;5085135;28;20155;-80
2023/10/04 11:36:41;;;;;;;5.75;2.83;;;;;;;28.37;37.16;97323.88;5103397;28;20035;-81
2023/10/04 11:39:13;;;;;;;6.25;2.88;;;;;;;28.70;37.05;97328.47;5102772;28;20027;-81